Fostoria, Ohio
Current Conditions -  °F | °C
As of 10:53 PM on Saturday 25 Oct 2014 (Local Time) from KFDY Reporting Station
Haze Haze  
Wind Chill: 47°   Ceiling: Unl
Heat Index: 49°   Visibility: 5mi
Dew Point: 35°   Wind: 6mph
Humidity: 59%   Direction: 280°W
Pressure: 29.86"   Gusts: NA
Location:  41.16°N, 83.41°W
Report Text: KFDY 260253Z AUTO 28005KT 5SM HZ CLR 09/02 A2986 RMK AO2 SLP109 T00940017 53008
Loading
Personal Weather Stations






























Interactive Weather Map New forecast layout! Learn more

10-Day Weather Forecast

Advertisements
Track Severe Weather on mobile